Time,TemperatureF,DewpointF,PressureIn,WindDirection,WindDirectionDegrees,WindSpeedMPH,WindSpeedGustMPH,Humidity,HourlyPrecipIn,Conditions,Clouds,dailyrainin,SoftwareType,DateUTC
2013-03-06 00:02:00,36.0,30.0,30.02,SSW,203,0.0,0.0,80,0.00,,,-99.99,,2013-03-06 05:02:00,
2013-03-06 00:12:00,36.0,30.0,30.02,SSW,203,0.0,0.0,80,0.00,,,-99.99,,2013-03-06 05:12:00,
2013-03-06 00:22:00,36.0,30.0,30.02,SSW,203,0.0,0.0,80,0.00,,,-99.99,,2013-03-06 05:22:00,
2013-03-06 00:32:00,36.0,31.0,30.01,SSW,203,0.0,0.0,81,0.00,,,-99.99,,2013-03-06 05:32:00,
2013-03-06 00:42:00,36.0,31.0,30.01,SSW,203,0.0,0.0,81,0.00,,,-99.99,,2013-03-06 05:42:00,
2013-03-06 00:52:00,36.0,31.0,30.01,SSW,203,0.0,0.0,81,0.00,,,-99.99,,2013-03-06 05:52:00,
2013-03-06 01:02:00,36.0,31.0,30.01,SSE,152,0.0,0.0,81,0.00,,,-99.99,,2013-03-06 06:02:00,
2013-03-06 01:11:00,36.0,31.0,30.01,SSE,152,0.0,0.0,81,0.00,,,-99.99,,2013-03-06 06:11:00,
2013-03-06 01:22:00,36.0,31.0,30.01,SE,141,0.0,0.0,81,0.00,,,-99.99,,2013-03-06 06:22:00,
2013-03-06 01:32:00,36.0,31.0,30.01,SE,142,0.0,0.0,82,0.00,,,-99.99,,2013-03-06 06:32:00,
2013-03-06 01:42:00,36.0,31.0,30.01,SE,142,0.0,0.0,82,0.00,,,-99.99,,2013-03-06 06:42:00,
2013-03-06 01:52:00,36.0,31.0,30.01,SE,142,0.0,0.0,82,0.00,,,-99.99,,2013-03-06 06:52:00,
2013-03-06 02:01:00,36.0,31.0,30.01,SE,142,0.0,0.0,82,0.00,,,-99.99,,2013-03-06 07:01:00,
2013-03-06 02:11:00,36.0,31.0,30.01,SE,142,0.0,0.0,82,0.00,,,-99.99,,2013-03-06 07:11:00,
2013-03-06 02:22:00,34.0,30.0,30.01,SE,143,0.0,0.0,85,0.00,,,-99.99,,2013-03-06 07:22:00,
2013-03-06 02:32:00,35.0,31.0,30.00,SE,141,0.0,0.0,84,0.00,,,-99.99,,2013-03-06 07:32:00,
2013-03-06 02:42:00,35.0,31.0,30.00,SE,141,0.0,0.0,84,0.00,,,-99.99,,2013-03-06 07:42:00,
2013-03-06 02:52:00,35.0,31.0,30.00,SE,141,0.0,0.0,84,0.00,,,-99.99,,2013-03-06 07:52:00,
2013-03-06 03:01:00,35.0,31.0,30.00,ESE,114,0.0,0.0,84,0.00,,,-99.99,,2013-03-06 08:01:00,
2013-03-06 03:11:00,35.0,31.0,30.00,ESE,114,0.0,0.0,84,0.00,,,-99.99,,2013-03-06 08:11:00,
2013-03-06 03:21:00,35.0,31.0,30.00,ENE,72,2.0,3.0,85,0.00,,,-99.99,,2013-03-06 08:21:00,
2013-03-06 03:32:00,35.0,31.0,29.99,ENE,78,2.0,3.0,85,0.00,,,-99.99,,2013-03-06 08:32:00,
2013-03-06 03:42:00,35.0,31.0,29.99,ENE,78,2.0,3.0,85,0.00,,,-99.99,,2013-03-06 08:42:00,
2013-03-06 03:52:00,35.0,31.0,29.99,ENE,78,2.0,3.0,85,0.00,,,-99.99,,2013-03-06 08:52:00,
2013-03-06 04:01:00,34.0,30.0,29.99,ENE,72,2.0,3.0,86,0.00,,,-99.99,,2013-03-06 09:01:00,
2013-03-06 04:12:00,34.0,30.0,29.99,ENE,72,2.0,3.0,86,0.00,,,-99.99,,2013-03-06 09:12:00,
2013-03-06 04:22:00,34.0,30.0,29.99,ENE,72,2.0,3.0,86,0.00,,,-99.99,,2013-03-06 09:22:00,
2013-03-06 04:32:00,34.0,30.0,29.99,ENE,72,2.0,3.0,86,0.00,,,-99.99,,2013-03-06 09:32:00,
2013-03-06 04:42:00,34.0,30.0,29.99,ENE,72,2.0,3.0,86,0.00,,,-99.99,,2013-03-06 09:42:00,
2013-03-06 04:52:00,34.0,30.0,29.98,ENE,72,2.0,3.0,86,0.00,,,-99.99,,2013-03-06 09:52:00,
2013-03-06 05:02:00,34.0,30.0,29.98,ENE,72,2.0,3.0,86,0.00,,,-99.99,,2013-03-06 10:02:00,
2013-03-06 05:11:00,34.0,30.0,29.98,ENE,72,2.0,3.0,86,0.00,,,-99.99,,2013-03-06 10:11:00,
2013-03-06 05:22:00,34.0,30.0,29.97,ENE,72,2.0,3.0,86,0.00,,,-99.99,,2013-03-06 10:22:00,
2013-03-06 05:32:00,34.0,30.0,29.97,ENE,72,2.0,3.0,86,0.00,,,-99.99,,2013-03-06 10:32:00,
2013-03-06 05:42:00,34.0,30.0,29.97,ENE,72,2.0,3.0,86,0.00,,,-99.99,,2013-03-06 10:42:00,
2013-03-06 05:52:00,34.0,30.0,29.98,ENE,72,2.0,3.0,86,0.00,,,-99.99,,2013-03-06 10:52:00,
2013-03-06 06:02:00,34.0,30.0,29.98,ENE,72,2.0,3.0,86,0.00,,,-99.99,,2013-03-06 11:02:00,
2013-03-06 06:11:00,34.0,30.0,29.98,ENE,72,2.0,3.0,86,0.00,,,-99.99,,2013-03-06 11:11:00,
2013-03-06 06:22:00,34.0,30.0,29.98,ENE,72,2.0,3.0,86,0.00,,,-99.99,,2013-03-06 11:22:00,
2013-03-06 06:32:00,34.0,30.0,29.98,ENE,72,2.0,3.0,86,0.00,,,-99.99,,2013-03-06 11:32:00,
2013-03-06 06:42:00,34.0,30.0,29.98,ENE,72,2.0,3.0,86,0.00,,,-99.99,,2013-03-06 11:42:00,
2013-03-06 06:52:00,34.0,30.0,29.98,ENE,72,2.0,3.0,86,0.00,,,-99.99,,2013-03-06 11:52:00,
2013-03-06 07:02:00,34.0,30.0,29.97,ENE,72,2.0,3.0,86,0.00,,,-99.99,,2013-03-06 12:02:00,
2013-03-06 07:11:00,34.0,30.0,29.97,ENE,72,2.0,3.0,86,0.00,,,-99.99,,2013-03-06 12:11:00,
2013-03-06 07:22:00,34.0,30.0,29.96,ENE,72,2.0,3.0,86,0.00,,,-99.99,,2013-03-06 12:22:00,
2013-03-06 07:33:00,34.0,30.0,29.97,ENE,72,2.0,3.0,86,0.00,,,-99.99,,2013-03-06 12:33:00,
2013-03-06 07:42:00,34.0,30.0,29.97,ENE,72,2.0,3.0,86,0.00,,,-99.99,,2013-03-06 12:42:00,
2013-03-06 07:53:00,34.0,30.0,29.97,ENE,72,2.0,3.0,86,0.00,,,-99.99,,2013-03-06 12:53:00,
2013-03-06 08:02:00,34.0,30.0,29.96,ENE,72,2.0,3.0,86,0.00,,,-99.99,,2013-03-06 13:02:00,
2013-03-06 08:12:00,34.0,30.0,29.96,ENE,72,2.0,3.0,86,0.00,,,-99.99,,2013-03-06 13:12:00,
2013-03-06 08:22:00,34.0,30.0,29.96,ENE,72,2.0,3.0,86,0.00,,,-99.99,,2013-03-06 13:22:00,
2013-03-06 08:32:00,37.0,35.0,29.97,ENE,58,5.0,8.0,92,0.00,,,-99.99,,2013-03-06 13:32:00,
2013-03-06 08:42:00,37.0,35.0,29.97,ENE,58,5.0,8.0,92,0.00,,,-99.99,,2013-03-06 13:42:00,
2013-03-06 08:52:00,37.0,35.0,29.98,ENE,74,4.0,7.0,91,0.00,,,-99.99,,2013-03-06 13:52:00,
2013-03-06 09:02:00,37.0,35.0,29.98,ENE,74,4.0,7.0,91,0.00,,,-99.99,,2013-03-06 14:02:00,
2013-03-06 09:11:00,37.0,35.0,29.98,ENE,74,4.0,7.0,91,0.00,,,-99.99,,2013-03-06 14:11:00,
2013-03-06 09:22:00,38.0,34.0,29.97,East,79,5.0,12.0,87,0.00,,,-99.99,,2013-03-06 14:22:00,
2013-03-06 09:32:00,38.0,34.0,29.96,East,87,5.0,12.0,86,0.00,,,-99.99,,2013-03-06 14:32:00,
2013-03-06 09:42:00,38.0,34.0,29.96,East,87,5.0,12.0,86,0.00,,,-99.99,,2013-03-06 14:42:00,
2013-03-06 09:53:00,39.0,35.0,29.97,ESE,123,4.0,12.0,86,0.00,,,-99.99,,2013-03-06 14:53:00,
2013-03-06 10:02:00,38.0,35.0,29.97,East,84,5.0,11.0,89,0.00,,,-99.99,,2013-03-06 15:02:00,
2013-03-06 10:11:00,38.0,35.0,29.97,East,84,5.0,11.0,89,0.00,,,-99.99,,2013-03-06 15:11:00,
2013-03-06 10:22:00,38.0,35.0,29.96,ESE,108,4.0,10.0,89,0.00,,,-99.99,,2013-03-06 15:22:00,
2013-03-06 10:32:00,38.0,35.0,29.96,ESE,108,4.0,10.0,89,0.00,,,-99.99,,2013-03-06 15:32:00,
2013-03-06 10:42:00,38.0,35.0,29.96,ESE,108,4.0,10.0,89,0.00,,,-99.99,,2013-03-06 15:42:00,
2013-03-06 10:52:00,38.0,35.0,29.96,ESE,108,4.0,10.0,89,0.00,,,-99.99,,2013-03-06 15:52:00,
2013-03-06 17:22:00,37.0,34.0,29.93,SE,127,8.0,17.0,89,0.00,,,-99.99,,2013-03-06 22:22:00,
2013-03-06 17:32:00,36.0,33.0,29.92,NE,40,7.0,16.0,89,0.00,,,-99.99,,2013-03-06 22:32:00,
2013-03-06 17:42:00,36.0,33.0,29.92,NE,40,7.0,16.0,89,0.00,,,-99.99,,2013-03-06 22:42:00,
2013-03-06 17:52:00,36.0,33.0,29.93,ENE,57,7.0,16.0,88,0.00,,,-99.99,,2013-03-06 22:52:00,
2013-03-06 18:01:00,36.0,33.0,29.93,ENE,57,7.0,16.0,88,0.00,,,-99.99,,2013-03-06 23:01:00,
2013-03-06 18:11:00,36.0,33.0,29.93,ENE,57,7.0,16.0,88,0.00,,,-99.99,,2013-03-06 23:11:00,
2013-03-06 18:22:00,36.0,33.0,29.93,ENE,57,7.0,16.0,88,0.00,,,-99.99,,2013-03-06 23:22:00,
2013-03-06 18:32:00,36.0,33.0,29.94,NE,46,6.0,20.0,89,0.00,,,-99.99,,2013-03-06 23:32:00,
2013-03-06 18:42:00,36.0,33.0,29.94,ENE,58,6.0,14.0,87,0.00,,,-99.99,,2013-03-06 23:42:00,
2013-03-06 18:52:00,36.0,33.0,29.94,ENE,58,6.0,14.0,87,0.00,,,-99.99,,2013-03-06 23:52:00,
2013-03-06 19:02:00,36.0,33.0,29.94,ENE,58,6.0,14.0,87,0.00,,,-99.99,,2013-03-07 00:02:00,
2013-03-06 19:11:00,36.0,33.0,29.94,ENE,58,6.0,14.0,87,0.00,,,-99.99,,2013-03-07 00:11:00,
2013-03-06 19:21:00,36.0,32.0,29.94,NE,42,8.0,18.0,86,0.00,,,-99.99,,2013-03-07 00:21:00,
2013-03-06 19:32:00,36.0,33.0,29.94,NE,43,7.0,16.0,87,0.00,,,-99.99,,2013-03-07 00:32:00,
2013-03-06 19:42:00,36.0,33.0,29.94,NE,43,7.0,16.0,87,0.00,,,-99.99,,2013-03-07 00:42:00,
2013-03-06 19:52:00,36.0,33.0,29.94,NE,43,7.0,16.0,87,0.00,,,-99.99,,2013-03-07 00:52:00,
2013-03-06 20:02:00,35.0,32.0,29.94,NE,39,6.0,16.0,88,0.00,,,-99.99,,2013-03-07 01:02:00,
2013-03-06 20:12:00,35.0,32.0,29.94,NE,39,6.0,16.0,88,0.00,,,-99.99,,2013-03-07 01:12:00,
2013-03-06 20:22:00,35.0,32.0,29.94,NE,39,6.0,16.0,88,0.00,,,-99.99,,2013-03-07 01:22:00,
2013-03-06 20:32:00,35.0,32.0,29.95,NNE,25,7.0,13.0,87,0.00,,,-99.99,,2013-03-07 01:32:00,
2013-03-06 20:42:00,35.0,32.0,29.95,NNE,25,7.0,13.0,87,0.00,,,-99.99,,2013-03-07 01:42:00,
2013-03-06 20:52:00,35.0,32.0,29.93,NE,46,7.0,19.0,87,0.00,,,-99.99,,2013-03-07 01:52:00,
2013-03-06 21:01:00,35.0,32.0,29.93,NE,46,7.0,19.0,87,0.00,,,-99.99,,2013-03-07 02:01:00,
2013-03-06 21:11:00,35.0,32.0,29.93,NE,46,7.0,19.0,87,0.00,,,-99.99,,2013-03-07 02:11:00,
2013-03-06 21:21:00,35.0,31.0,29.93,NE,48,6.0,14.0,86,0.00,,,-99.99,,2013-03-07 02:21:00,
2013-03-06 21:32:00,35.0,32.0,29.94,NE,51,6.0,17.0,87,0.00,,,-99.99,,2013-03-07 02:32:00,
2013-03-06 21:42:00,35.0,32.0,29.94,NE,51,6.0,17.0,87,0.00,,,-99.99,,2013-03-07 02:42:00,
2013-03-06 21:52:00,35.0,32.0,29.94,NE,51,6.0,17.0,87,0.00,,,-99.99,,2013-03-07 02:52:00,
2013-03-06 22:02:00,35.0,31.0,29.93,North,1,7.0,17.0,86,0.00,,,-99.99,,2013-03-07 03:02:00,
2013-03-06 22:11:00,35.0,31.0,29.93,North,1,7.0,17.0,86,0.00,,,-99.99,,2013-03-07 03:11:00,
2013-03-06 22:22:00,35.0,31.0,29.93,North,1,7.0,17.0,86,0.00,,,-99.99,,2013-03-07 03:22:00,
2013-03-06 22:32:00,36.0,32.0,29.94,NW,310,6.0,13.0,84,0.00,,,-99.99,,2013-03-07 03:32:00,
2013-03-06 22:42:00,36.0,32.0,29.94,NW,310,6.0,13.0,84,0.00,,,-99.99,,2013-03-07 03:42:00,
2013-03-06 22:50:00,35.0,31.0,29.94,NE,46,7.0,20.0,84,0.00,,,-99.99,,2013-03-07 03:50:00,
2013-03-06 22:52:00,36.0,32.0,29.94,NNE,19,7.0,17.0,84,0.00,,,-99.99,,2013-03-07 03:52:00,
2013-03-06 23:02:00,35.0,31.0,29.95,ENE,58,7.0,16.0,84,0.00,,,-99.99,,2013-03-07 04:02:00,
2013-03-06 23:12:00,35.0,31.0,29.95,ENE,58,7.0,16.0,84,0.00,,,-99.99,,2013-03-07 04:12:00,
2013-03-06 23:22:00,35.0,31.0,29.94,NE,46,7.0,20.0,84,0.00,,,-99.99,,2013-03-07 04:22:00,
2013-03-06 23:32:00,35.0,31.0,29.94,NE,46,7.0,20.0,84,0.00,,,-99.99,,2013-03-07 04:32:00,
2013-03-06 23:42:00,35.0,31.0,29.94,NE,46,7.0,20.0,84,0.00,,,-99.99,,2013-03-07 04:42:00,